createdAt,value
2019-04-30T00:00:18.218Z,1001.6
2019-04-30T00:06:15.705Z,1001.6
2019-04-30T00:09:18.993Z,1001.6
2019-04-30T00:12:15.776Z,1001.5
2019-04-30T00:15:19.489Z,1001.5
2019-04-30T00:18:15.593Z,1001.5
2019-04-30T00:24:15.912Z,1001.5
2019-04-30T00:27:15.415Z,1001.5
2019-04-30T00:30:15.697Z,1001.5
2019-04-30T00:33:21.968Z,1001.5
2019-04-30T00:36:17.398Z,1001.5
2019-04-30T00:39:16.668Z,1001.5
2019-04-30T00:42:17.332Z,1001.5
2019-04-30T00:45:15.602Z,1001.5
2019-04-30T00:48:19.744Z,1001.5
2019-04-30T00:51:21.099Z,1001.5
2019-04-30T00:54:15.256Z,1001.5
2019-04-30T00:57:15.322Z,1001.5
2019-04-30T01:00:19.679Z,1001.5
2019-04-30T01:06:17.214Z,1001.4
2019-04-30T01:09:15.646Z,1001.3
2019-04-30T01:12:17.345Z,1001.4
2019-04-30T01:15:15.513Z,1001.3
2019-04-30T01:18:15.817Z,1001.3
2019-04-30T01:21:15.521Z,1001.3
2019-04-30T01:24:14.994Z,1001.3
2019-04-30T01:27:15.223Z,1001.4
2019-04-30T01:30:18.729Z,1001.4
2019-04-30T01:33:15.636Z,1001.3
2019-04-30T01:36:14.965Z,1001.3
2019-04-30T01:39:15.810Z,1001.4
2019-04-30T01:42:15.135Z,1001.4
2019-04-30T01:45:15.199Z,1001.3
2019-04-30T02:00:15.165Z,1001.4
2019-04-30T02:03:15.333Z,1001.3
2019-04-30T02:06:15.641Z,1001.3
2019-04-30T02:15:15.270Z,1001.3
2019-04-30T02:18:15.753Z,1001.3
2019-04-30T02:24:15.141Z,1001.3
2019-04-30T02:27:15.269Z,1001.3
2019-04-30T02:30:15.060Z,1001.3
2019-04-30T02:36:15.665Z,1001.2
2019-04-30T02:39:15.892Z,1001.2
2019-04-30T02:42:15.672Z,1001.2
2019-04-30T02:45:15.230Z,1001.2
2019-04-30T02:48:15.502Z,1001.2
2019-04-30T02:51:15.797Z,1001.3
2019-04-30T02:54:15.202Z,1001.2
2019-04-30T02:57:15.414Z,1001.3
2019-04-30T03:00:15.392Z,1001.2
2019-04-30T03:03:15.253Z,1001.2
2019-04-30T03:06:15.524Z,1001.2
2019-04-30T03:09:15.049Z,1001.2
2019-04-30T03:12:15.340Z,1001.2
2019-04-30T03:15:15.026Z,1001.2
2019-04-30T03:18:15.641Z,1001.2
2019-04-30T03:21:15.263Z,1001.2
2019-04-30T03:24:15.545Z,1001.2
2019-04-30T03:27:15.122Z,1001.2
2019-04-30T03:33:15.761Z,1001.1
2019-04-30T03:36:15.560Z,1001.2
2019-04-30T03:39:15.072Z,1001.2
2019-04-30T03:42:15.495Z,1001.2
2019-04-30T03:45:15.083Z,1001.1
2019-04-30T03:48:15.638Z,1001.1
2019-04-30T03:51:14.871Z,1001.1
2019-04-30T03:54:15.921Z,1001.1
2019-04-30T03:57:14.879Z,1001.1
2019-04-30T04:00:15.814Z,1001.1
2019-04-30T04:03:15.057Z,1001.1
2019-04-30T04:06:15.111Z,1001.1
2019-04-30T04:09:15.699Z,1001.1
2019-04-30T04:12:15.319Z,1001.1
2019-04-30T04:15:15.001Z,1001.1
2019-04-30T04:18:15.526Z,1001.1
2019-04-30T04:21:16.661Z,1001.1
2019-04-30T04:24:15.441Z,1001.2
2019-04-30T04:27:15.083Z,1001.2
2019-04-30T04:30:15.888Z,1001.2
2019-04-30T04:33:15.354Z,1001.2
2019-04-30T04:36:15.162Z,1001.2
2019-04-30T04:39:15.791Z,1001.2
2019-04-30T04:42:15.216Z,1001.1
2019-04-30T04:45:19.582Z,1001.1
2019-04-30T04:48:15.272Z,1001.1
2019-04-30T04:51:33.373Z,1001.1
2019-04-30T04:54:15.349Z,1001.1
2019-04-30T04:57:19.274Z,1001.1
2019-04-30T05:00:15.567Z,1001.1
2019-04-30T05:03:15.593Z,1001.0
2019-04-30T05:06:14.961Z,1001.0
2019-04-30T05:09:15.540Z,1001.1
2019-04-30T05:12:15.184Z,1001.1
2019-04-30T05:15:15.376Z,1001.0
2019-04-30T05:18:15.082Z,1001.0
2019-04-30T05:21:15.728Z,1001.1
2019-04-30T05:24:15.551Z,1001.1
2019-04-30T05:27:15.212Z,1001.2
2019-04-30T05:30:15.700Z,1001.1
2019-04-30T05:33:15.088Z,1001.1
2019-04-30T05:36:15.188Z,1001.0
2019-04-30T05:39:15.752Z,1001.0
2019-04-30T05:42:15.283Z,1001.0
2019-04-30T05:45:15.088Z,1001.0
2019-04-30T05:48:15.000Z,1001.1
2019-04-30T05:51:15.229Z,1001.1
2019-04-30T05:54:15.526Z,1001.1
2019-04-30T05:57:15.744Z,1001.1
2019-04-30T06:00:14.893Z,1001.1
2019-04-30T06:03:25.275Z,1001.1
2019-04-30T06:06:15.744Z,1001.2
2019-04-30T06:09:22.578Z,1001.2
2019-04-30T06:12:15.257Z,1001.2
2019-04-30T06:15:15.479Z,1001.2
2019-04-30T06:18:15.614Z,1001.1
2019-04-30T06:21:15.322Z,1001.2
2019-04-30T06:24:14.998Z,1001.3
2019-04-30T06:30:15.889Z,1001.2
2019-04-30T06:33:15.201Z,1001.2
2019-04-30T06:36:15.695Z,1001.2
2019-04-30T06:39:15.242Z,1001.3
2019-04-30T06:42:15.375Z,1001.3
2019-04-30T06:45:15.814Z,1001.3
2019-04-30T06:48:15.363Z,1001.3
2019-04-30T06:51:15.094Z,1001.3
2019-04-30T06:54:15.147Z,1001.3
2019-04-30T06:57:15.258Z,1001.3
2019-04-30T07:00:14.892Z,1001.3
2019-04-30T07:06:27.535Z,1001.2
2019-04-30T07:09:15.857Z,1001.2
2019-04-30T07:12:25.515Z,1001.2
2019-04-30T07:18:15.242Z,1001.3
2019-04-30T07:21:15.339Z,1001.2
2019-04-30T07:24:15.011Z,1001.3
2019-04-30T07:27:15.485Z,1001.4
2019-04-30T07:30:15.695Z,1001.4
2019-04-30T07:33:15.413Z,1001.5
2019-04-30T07:36:15.030Z,1001.4
2019-04-30T07:39:15.109Z,1001.4
2019-04-30T07:42:15.633Z,1001.4
2019-04-30T07:45:15.476Z,1001.4
2019-04-30T07:48:15.242Z,1001.4
2019-04-30T07:51:15.873Z,1001.4
2019-04-30T07:54:15.429Z,1001.3
2019-04-30T07:57:15.555Z,1001.4
2019-04-30T08:00:15.487Z,1001.4
2019-04-30T08:03:15.938Z,1001.4
2019-04-30T08:06:14.996Z,1001.4
2019-04-30T08:09:15.262Z,1001.3
2019-04-30T08:12:22.271Z,1001.4
2019-04-30T08:15:15.375Z,1001.5
2019-04-30T08:18:15.127Z,1001.5
2019-04-30T08:21:14.904Z,1001.5
2019-04-30T08:24:15.369Z,1001.4
2019-04-30T08:27:15.730Z,1001.4
2019-04-30T08:30:23.866Z,1001.5
2019-04-30T08:33:15.053Z,1001.5
2019-04-30T08:36:15.834Z,1001.4
2019-04-30T08:39:15.389Z,1001.4
2019-04-30T08:42:28.244Z,1001.5
2019-04-30T08:45:15.903Z,1001.4
2019-04-30T08:48:15.825Z,1001.4
2019-04-30T08:51:15.853Z,1001.5
2019-04-30T08:54:15.067Z,1001.4
2019-04-30T08:57:15.984Z,1001.5
2019-04-30T09:00:15.149Z,1001.5
2019-04-30T09:03:15.255Z,1001.4
2019-04-30T09:06:15.235Z,1001.5
2019-04-30T09:09:15.019Z,1001.4
2019-04-30T09:12:15.474Z,1001.4
2019-04-30T09:15:15.951Z,1001.4
2019-04-30T09:18:15.835Z,1001.4
2019-04-30T09:21:14.965Z,1001.4
2019-04-30T09:24:15.453Z,1001.4
2019-04-30T09:27:15.438Z,1001.4
2019-04-30T09:30:15.406Z,1001.4
2019-04-30T09:33:15.527Z,1001.4
2019-04-30T09:36:15.059Z,1001.3
2019-04-30T09:39:15.870Z,1001.4
2019-04-30T09:42:15.157Z,1001.4
2019-04-30T09:45:15.876Z,1001.4
2019-04-30T09:48:15.483Z,1001.4
2019-04-30T09:51:15.498Z,1001.3
2019-04-30T09:54:15.617Z,1001.2
2019-04-30T09:57:15.757Z,1001.3
2019-04-30T10:00:15.718Z,1001.2
2019-04-30T10:03:15.999Z,1001.2
2019-04-30T10:06:15.442Z,1001.2
2019-04-30T10:09:20.568Z,1001.2
2019-04-30T10:12:15.568Z,1001.2
2019-04-30T10:15:14.950Z,1001.2
2019-04-30T10:18:15.487Z,1001.1
2019-04-30T10:21:15.035Z,1001.1
2019-04-30T10:24:15.922Z,1001.1
2019-04-30T10:27:15.163Z,1000.9
2019-04-30T10:30:16.064Z,1001.0
2019-04-30T10:33:15.737Z,1001.0
2019-04-30T10:36:15.583Z,1000.9
2019-04-30T10:39:15.901Z,1001.0
2019-04-30T10:42:15.645Z,1000.9
2019-04-30T10:45:15.141Z,1000.9
2019-04-30T10:48:15.539Z,1000.8
2019-04-30T10:51:15.853Z,1000.7
2019-04-30T10:54:24.066Z,1000.7
2019-04-30T10:57:15.098Z,1000.7
2019-04-30T11:00:15.359Z,1000.7
2019-04-30T11:03:19.891Z,1000.7
2019-04-30T11:06:15.418Z,1000.7
2019-04-30T11:09:15.338Z,1000.6
2019-04-30T11:12:15.817Z,1000.6
2019-04-30T11:15:15.136Z,1000.6
2019-04-30T11:18:15.460Z,1000.6
2019-04-30T11:21:15.597Z,1000.5
2019-04-30T11:24:15.698Z,1000.4
2019-04-30T11:27:15.519Z,1000.4
2019-04-30T11:30:21.386Z,1000.3
2019-04-30T11:33:15.429Z,1000.4
2019-04-30T11:36:15.796Z,1000.3
2019-04-30T11:39:15.891Z,1000.3
2019-04-30T11:42:15.486Z,1000.2
2019-04-30T11:45:15.859Z,1000.2
2019-04-30T11:48:15.949Z,1000.2
2019-04-30T11:51:15.751Z,1000.2
2019-04-30T11:54:15.108Z,1000.1
2019-04-30T11:57:15.500Z,1000.1
2019-04-30T12:00:15.493Z,1000.0
2019-04-30T12:03:15.735Z,1000.0
2019-04-30T12:06:14.984Z,1000.0
2019-04-30T12:09:15.059Z,999.9
2019-04-30T12:12:15.730Z,999.9
2019-04-30T12:15:15.059Z,999.9
2019-04-30T12:18:15.763Z,999.9
2019-04-30T12:21:15.914Z,999.8
2019-04-30T12:24:15.601Z,999.8
2019-04-30T12:27:14.906Z,999.8
2019-04-30T12:30:15.249Z,999.8
2019-04-30T12:33:15.632Z,999.8
2019-04-30T12:36:15.326Z,999.8
2019-04-30T12:39:15.098Z,999.7
2019-04-30T12:42:15.617Z,999.7
2019-04-30T12:45:15.324Z,999.7
2019-04-30T12:48:15.002Z,999.7
2019-04-30T12:51:15.919Z,999.7
2019-04-30T12:54:15.737Z,999.6
2019-04-30T12:57:15.012Z,999.5
2019-04-30T13:00:15.117Z,999.4
2019-04-30T13:03:15.812Z,999.4
2019-04-30T13:06:15.949Z,999.4
2019-04-30T13:09:16.238Z,999.4
2019-04-30T13:12:16.318Z,999.4
2019-04-30T13:15:15.761Z,999.3
2019-04-30T13:18:15.936Z,999.4
2019-04-30T13:21:15.354Z,999.4
2019-04-30T13:24:15.248Z,999.3
2019-04-30T13:27:14.929Z,999.3
2019-04-30T13:30:15.767Z,999.2
2019-04-30T13:33:15.563Z,999.2
2019-04-30T13:36:15.453Z,999.1
2019-04-30T13:39:15.398Z,999.1
2019-04-30T13:42:18.180Z,999.1
2019-04-30T13:45:15.548Z,999.1
2019-04-30T13:48:15.669Z,999.1
2019-04-30T13:51:15.350Z,999.1
2019-04-30T13:54:15.899Z,998.9
2019-04-30T13:57:15.155Z,998.9
2019-04-30T14:00:15.955Z,998.9
2019-04-30T14:03:15.026Z,998.9
2019-04-30T14:06:15.248Z,998.9
2019-04-30T14:09:15.822Z,998.8
2019-04-30T14:12:15.360Z,998.8
2019-04-30T14:15:15.049Z,998.7
2019-04-30T14:18:27.885Z,998.8
2019-04-30T14:21:16.001Z,998.7
2019-04-30T14:24:15.566Z,998.7
2019-04-30T14:27:15.472Z,998.7
2019-04-30T14:30:15.363Z,998.7
2019-04-30T14:33:25.594Z,998.7
2019-04-30T14:36:15.719Z,998.7
2019-04-30T14:39:17.072Z,998.7
2019-04-30T14:42:16.041Z,998.6
2019-04-30T14:45:15.988Z,998.5
2019-04-30T14:48:16.183Z,998.5
2019-04-30T14:51:15.462Z,998.4
2019-04-30T14:54:15.126Z,998.5
2019-04-30T14:57:15.756Z,998.5
2019-04-30T15:00:15.456Z,998.5
2019-04-30T15:03:15.017Z,998.5
2019-04-30T15:06:15.954Z,998.6
2019-04-30T15:15:15.476Z,998.5
2019-04-30T15:18:15.907Z,998.5
2019-04-30T15:21:15.702Z,998.4
2019-04-30T15:24:15.407Z,998.4
2019-04-30T15:27:15.470Z,998.4
2019-04-30T15:30:21.758Z,998.4
2019-04-30T15:33:15.829Z,998.3
2019-04-30T15:36:15.547Z,998.4
2019-04-30T15:39:15.791Z,998.5
2019-04-30T15:42:15.961Z,998.4
2019-04-30T15:45:15.776Z,998.4
2019-04-30T15:48:15.588Z,998.4
2019-04-30T15:51:15.584Z,998.4
2019-04-30T15:54:15.234Z,998.6
2019-04-30T15:57:15.745Z,998.6
2019-04-30T16:00:15.090Z,998.5
2019-04-30T16:03:15.537Z,998.5
2019-04-30T16:06:15.076Z,998.5
2019-04-30T16:09:15.054Z,998.5
2019-04-30T16:12:15.853Z,998.5
2019-04-30T16:15:14.986Z,998.5
2019-04-30T16:18:15.281Z,998.5
2019-04-30T16:21:15.182Z,998.4
2019-04-30T16:24:15.749Z,998.4
2019-04-30T16:27:15.320Z,998.4
2019-04-30T16:30:15.243Z,998.3
2019-04-30T16:33:15.473Z,998.4
2019-04-30T16:36:15.135Z,998.4
2019-04-30T16:39:15.482Z,998.3
2019-04-30T16:42:15.389Z,998.4
2019-04-30T16:45:15.653Z,998.3
2019-04-30T16:51:15.067Z,998.4
2019-04-30T16:54:15.463Z,998.3
2019-04-30T16:57:14.993Z,998.3
2019-04-30T17:00:15.836Z,998.3
2019-04-30T17:03:15.394Z,998.3
2019-04-30T17:06:15.210Z,998.2
2019-04-30T17:09:15.263Z,998.2
2019-04-30T17:12:15.625Z,998.2
2019-04-30T17:15:15.114Z,998.3
2019-04-30T17:18:15.080Z,998.2
2019-04-30T17:21:15.485Z,998.2
2019-04-30T17:24:15.081Z,998.2
2019-04-30T17:27:19.353Z,998.2
2019-04-30T17:30:15.515Z,998.2
2019-04-30T17:33:15.761Z,998.2
2019-04-30T17:36:15.293Z,998.3
2019-04-30T17:39:15.166Z,998.3
2019-04-30T17:42:15.045Z,998.3
2019-04-30T17:45:15.399Z,998.3
2019-04-30T17:48:16.007Z,998.3
2019-04-30T17:51:15.490Z,998.3
2019-04-30T17:54:14.905Z,998.4
2019-04-30T17:57:15.603Z,998.3
2019-04-30T18:00:18.754Z,998.4
2019-04-30T18:03:14.974Z,998.4
2019-04-30T18:09:15.226Z,998.4
2019-04-30T18:12:15.645Z,998.4
2019-04-30T18:15:15.739Z,998.5
2019-04-30T18:18:15.540Z,998.5
2019-04-30T18:21:15.417Z,998.5
2019-04-30T18:24:15.619Z,998.5
2019-04-30T18:27:15.588Z,998.5
2019-04-30T18:30:15.779Z,998.5
2019-04-30T18:33:15.433Z,998.6
2019-04-30T18:36:15.049Z,998.7
2019-04-30T18:42:15.358Z,998.6
2019-04-30T18:45:15.456Z,998.7
2019-04-30T18:48:15.415Z,998.7
2019-04-30T18:51:30.677Z,998.7
2019-04-30T18:57:15.450Z,998.8
2019-04-30T19:00:15.111Z,998.8
2019-04-30T19:03:15.218Z,998.8
2019-04-30T19:06:23.042Z,998.8
2019-04-30T19:12:15.300Z,998.9
2019-04-30T19:15:15.759Z,998.9
2019-04-30T19:18:15.276Z,998.9
2019-04-30T19:21:15.311Z,998.9
2019-04-30T19:24:15.940Z,998.9
2019-04-30T19:27:15.486Z,998.9
2019-04-30T19:33:15.283Z,999.0
2019-04-30T19:36:18.297Z,999.0
2019-04-30T19:39:15.234Z,999.0
2019-04-30T19:51:15.822Z,999.1
2019-04-30T19:54:15.157Z,999.1
2019-04-30T19:57:15.898Z,999.2
2019-04-30T20:00:15.658Z,999.2
2019-04-30T20:03:15.362Z,999.2
2019-04-30T20:06:15.860Z,999.2
2019-04-30T20:09:15.452Z,999.3
2019-04-30T20:12:15.791Z,999.2
2019-04-30T20:15:18.983Z,999.3
2019-04-30T20:18:15.485Z,999.3
2019-04-30T20:24:15.786Z,999.3
2019-04-30T20:27:15.127Z,999.3
2019-04-30T20:30:15.260Z,999.4
2019-04-30T20:33:15.767Z,999.3
2019-04-30T20:36:15.864Z,999.3
2019-04-30T20:39:16.031Z,999.3
2019-04-30T20:42:15.794Z,999.3
2019-04-30T20:45:15.158Z,999.3
2019-04-30T20:48:15.727Z,999.3
2019-04-30T20:51:15.462Z,999.3
2019-04-30T20:54:15.490Z,999.3
2019-04-30T20:57:15.745Z,999.3
2019-04-30T21:00:15.009Z,999.3
2019-04-30T21:03:15.222Z,999.3
2019-04-30T21:06:15.025Z,999.2
2019-04-30T21:09:15.293Z,999.2
2019-04-30T21:12:15.701Z,999.2
2019-04-30T21:15:15.258Z,999.2
2019-04-30T21:18:15.310Z,999.2
2019-04-30T21:21:15.877Z,999.2
2019-04-30T21:24:15.362Z,999.2
2019-04-30T21:27:15.701Z,999.2
2019-04-30T21:30:14.922Z,999.2
2019-04-30T21:33:15.276Z,999.2
2019-04-30T21:36:15.065Z,999.1
2019-04-30T21:39:15.029Z,999.1
2019-04-30T21:42:15.517Z,999.1
2019-04-30T21:45:14.961Z,999.1
2019-04-30T21:48:15.807Z,999.1
2019-04-30T21:51:15.218Z,999.1
2019-04-30T21:54:15.726Z,999.2
2019-04-30T21:57:15.093Z,999.1
2019-04-30T22:00:15.445Z,999.1
2019-04-30T22:03:15.170Z,999.1
2019-04-30T22:06:15.711Z,999.1
2019-04-30T22:09:15.128Z,999.1
2019-04-30T22:12:15.373Z,999.1
2019-04-30T22:15:15.542Z,999.1
2019-04-30T22:18:15.115Z,999.1
2019-04-30T22:21:15.635Z,999.1
2019-04-30T22:24:15.884Z,999.1
2019-04-30T22:27:17.388Z,999.1
2019-04-30T22:30:15.101Z,999.1
2019-04-30T22:33:15.515Z,999.0
2019-04-30T22:45:15.575Z,999.0
2019-04-30T22:48:15.395Z,999.0
2019-04-30T22:51:15.425Z,999.0
2019-04-30T22:54:15.883Z,999.0
2019-04-30T22:57:15.190Z,999.0
2019-04-30T23:00:15.539Z,999.0
2019-04-30T23:03:15.681Z,999.0
2019-04-30T23:06:15.183Z,999.0
2019-04-30T23:12:15.266Z,999.0
2019-04-30T23:15:15.054Z,998.9
2019-04-30T23:18:15.319Z,998.9
2019-04-30T23:21:15.538Z,998.9
2019-04-30T23:27:15.012Z,998.9
2019-04-30T23:30:15.369Z,998.8
2019-04-30T23:33:15.805Z,998.8
2019-04-30T23:36:15.048Z,998.8
2019-04-30T23:39:15.388Z,998.8
2019-04-30T23:42:14.922Z,998.8
2019-04-30T23:45:15.225Z,998.8
2019-04-30T23:48:14.939Z,998.8
2019-04-30T23:51:15.297Z,998.8
2019-04-30T23:57:15.386Z,998.8
